sensor_id;sensor_type;location;lat;lon;timestamp;P1;durP1;ratioP1;P2;durP2;ratioP2
3831;SDS011;12460;42.662;23.288;2024-01-15T00:00:35;47.60;;;26.70;;
3831;SDS011;12460;42.662;23.288;2024-01-15T00:15:36;53.43;;;26.10;;
3831;SDS011;12460;42.662;23.288;2024-01-15T00:30:38;45.73;;;25.10;;
3831;SDS011;12460;42.662;23.288;2024-01-15T00:45:40;50.70;;;26.57;;
3831;SDS011;12460;42.662;23.288;2024-01-15T01:00:42;42.00;;;23.23;;
3831;SDS011;12460;42.662;23.288;2024-01-15T01:15:44;41.60;;;23.97;;
3831;SDS011;12460;42.662;23.288;2024-01-15T01:30:46;37.50;;;21.60;;
3831;SDS011;12460;42.662;23.288;2024-01-15T01:45:48;30.80;;;19.17;;
3831;SDS011;12460;42.662;23.288;2024-01-15T02:00:50;22.73;;;15.93;;
3831;SDS011;12460;42.662;23.288;2024-01-15T02:15:52;22.20;;;13.90;;
3831;SDS011;12460;42.662;23.288;2024-01-15T02:30:54;19.73;;;12.93;;
3831;SDS011;12460;42.662;23.288;2024-01-15T02:45:56;27.87;;;17.27;;
3831;SDS011;12460;42.662;23.288;2024-01-15T03:00:58;30.97;;;16.37;;
3831;SDS011;12460;42.662;23.288;2024-01-15T03:16:01;25.00;;;14.70;;
3831;SDS011;12460;42.662;23.288;2024-01-15T03:31:03;30.57;;;16.47;;
3831;SDS011;12460;42.662;23.288;2024-01-15T03:46:05;28.60;;;16.57;;
3831;SDS011;12460;42.662;23.288;2024-01-15T04:01:11;32.80;;;18.40;;
3831;SDS011;12460;42.662;23.288;2024-01-15T04:16:13;29.93;;;18.37;;
3831;SDS011;12460;42.662;23.288;2024-01-15T04:31:22;41.67;;;25.17;;
3831;SDS011;12460;42.662;23.288;2024-01-15T04:46:25;47.53;;;25.03;;
3831;SDS011;12460;42.662;23.288;2024-01-15T05:01:36;36.80;;;21.23;;
3831;SDS011;12460;42.662;23.288;2024-01-15T05:16:39;46.77;;;24.07;;
3831;SDS011;12460;42.662;23.288;2024-01-15T05:31:41;55.63;;;30.00;;
3831;SDS011;12460;42.662;23.288;2024-01-15T05:46:43;56.43;;;32.97;;
3831;SDS011;12460;42.662;23.288;2024-01-15T06:01:45;64.17;;;38.47;;
3831;SDS011;12460;42.662;23.288;2024-01-15T06:16:47;83.33;;;44.37;;
3831;SDS011;12460;42.662;23.288;2024-01-15T06:31:49;80.00;;;43.60;;
3831;SDS011;12460;42.662;23.288;2024-01-15T06:46:51;82.30;;;44.20;;
3831;SDS011;12460;42.662;23.288;2024-01-15T07:01:53;78.17;;;43.23;;
3831;SDS011;12460;42.662;23.288;2024-01-15T07:16:55;63.50;;;37.33;;
3831;SDS011;12460;42.662;23.288;2024-01-15T07:31:57;51.83;;;30.93;;
3831;SDS011;12460;42.662;23.288;2024-01-15T07:46:58;48.77;;;31.10;;
3831;SDS011;12460;42.662;23.288;2024-01-15T08:02:00;55.10;;;32.27;;
3831;SDS011;12460;42.662;23.288;2024-01-15T08:17:02;53.07;;;33.47;;
3831;SDS011;12460;42.662;23.288;2024-01-15T08:32:04;50.63;;;30.57;;
3831;SDS011;12460;42.662;23.288;2024-01-15T08:47:06;48.70;;;31.67;;
3831;SDS011;12460;42.662;23.288;2024-01-15T09:02:08;52.40;;;29.10;;
3831;SDS011;12460;42.662;23.288;2024-01-15T09:17:10;42.87;;;27.40;;
3831;SDS011;12460;42.662;23.288;2024-01-15T09:32:12;38.80;;;25.37;;
3831;SDS011;12460;42.662;23.288;2024-01-15T09:47:14;41.87;;;27.20;;
3831;SDS011;12460;42.662;23.288;2024-01-15T10:02:17;67.63;;;41.10;;
3831;SDS011;12460;42.662;23.288;2024-01-15T10:17:20;63.10;;;42.23;;
3831;SDS011;12460;42.662;23.288;2024-01-15T10:32:22;62.97;;;46.60;;
3831;SDS011;12460;42.662;23.288;2024-01-15T10:47:25;59.00;;;41.83;;
3831;SDS011;12460;42.662;23.288;2024-01-15T11:02:28;56.67;;;39.47;;
3831;SDS011;12460;42.662;23.288;2024-01-15T11:17:57;49.03;;;34.40;;
3831;SDS011;12460;42.662;23.288;2024-01-15T11:33:07;35.17;;;24.67;;
3831;SDS011;12460;42.662;23.288;2024-01-15T11:48:39;39.10;;;25.70;;
3831;SDS011;12460;42.662;23.288;2024-01-15T12:03:46;36.80;;;26.77;;
3831;SDS011;12460;42.662;23.288;2024-01-15T12:18:48;36.70;;;24.20;;
3831;SDS011;12460;42.662;23.288;2024-01-15T12:33:52;39.57;;;24.90;;
3831;SDS011;12460;42.662;23.288;2024-01-15T12:48:55;39.77;;;26.73;;
3831;SDS011;12460;42.662;23.288;2024-01-15T13:03:57;36.97;;;24.20;;
3831;SDS011;12460;42.662;23.288;2024-01-15T13:19:00;31.60;;;20.13;;
3831;SDS011;12460;42.662;23.288;2024-01-15T13:34:02;34.70;;;22.43;;
3831;SDS011;12460;42.662;23.288;2024-01-15T13:49:04;36.37;;;24.90;;
3831;SDS011;12460;42.662;23.288;2024-01-15T14:04:07;36.77;;;22.80;;
3831;SDS011;12460;42.662;23.288;2024-01-15T14:19:09;39.47;;;23.60;;
3831;SDS011;12460;42.662;23.288;2024-01-15T14:34:11;42.60;;;26.17;;
3831;SDS011;12460;42.662;23.288;2024-01-15T14:49:13;42.70;;;27.07;;
3831;SDS011;12460;42.662;23.288;2024-01-15T15:04:16;47.90;;;28.50;;
3831;SDS011;12460;42.662;23.288;2024-01-15T15:19:18;39.63;;;25.37;;
3831;SDS011;12460;42.662;23.288;2024-01-15T15:34:20;43.10;;;26.03;;
3831;SDS011;12460;42.662;23.288;2024-01-15T15:49:22;42.93;;;25.33;;
3831;SDS011;12460;42.662;23.288;2024-01-15T16:04:24;31.90;;;19.27;;
3831;SDS011;12460;42.662;23.288;2024-01-15T16:19:26;33.27;;;21.30;;
3831;SDS011;12460;42.662;23.288;2024-01-15T16:34:49;35.97;;;22.77;;
3831;SDS011;12460;42.662;23.288;2024-01-15T16:49:50;40.23;;;23.73;;
3831;SDS011;12460;42.662;23.288;2024-01-15T17:04:52;59.40;;;38.60;;
3831;SDS011;12460;42.662;23.288;2024-01-15T17:19:54;66.10;;;39.73;;
3831;SDS011;12460;42.662;23.288;2024-01-15T17:34:56;68.73;;;39.50;;
3831;SDS011;12460;42.662;23.288;2024-01-15T17:50:00;68.13;;;40.07;;
3831;SDS011;12460;42.662;23.288;2024-01-15T18:05:02;59.30;;;37.33;;
3831;SDS011;12460;42.662;23.288;2024-01-15T18:20:04;49.43;;;30.13;;
3831;SDS011;12460;42.662;23.288;2024-01-15T18:35:08;52.33;;;30.97;;
3831;SDS011;12460;42.662;23.288;2024-01-15T18:50:10;41.63;;;26.13;;
3831;SDS011;12460;42.662;23.288;2024-01-15T19:05:12;36.73;;;23.40;;
3831;SDS011;12460;42.662;23.288;2024-01-15T19:20:14;36.00;;;21.77;;
3831;SDS011;12460;42.662;23.288;2024-01-15T19:35:16;32.30;;;21.17;;
3831;SDS011;12460;42.662;23.288;2024-01-15T19:50:18;35.13;;;23.03;;
3831;SDS011;12460;42.662;23.288;2024-01-15T20:05:20;33.70;;;20.37;;
3831;SDS011;12460;42.662;23.288;2024-01-15T20:20:22;35.97;;;21.40;;
3831;SDS011;12460;42.662;23.288;2024-01-15T20:35:25;32.70;;;19.57;;
3831;SDS011;12460;42.662;23.288;2024-01-15T20:50:27;29.13;;;17.70;;
3831;SDS011;12460;42.662;23.288;2024-01-15T21:05:30;30.70;;;17.73;;
3831;SDS011;12460;42.662;23.288;2024-01-15T21:20:33;29.43;;;16.13;;
3831;SDS011;12460;42.662;23.288;2024-01-15T21:35:35;21.90;;;14.10;;
3831;SDS011;12460;42.662;23.288;2024-01-15T21:50:37;24.10;;;15.27;;
3831;SDS011;12460;42.662;23.288;2024-01-15T22:05:39;21.70;;;13.50;;
3831;SDS011;12460;42.662;23.288;2024-01-15T22:20:43;17.97;;;11.60;;
3831;SDS011;12460;42.662;23.288;2024-01-15T22:35:45;20.57;;;12.53;;
3831;SDS011;12460;42.662;23.288;2024-01-15T22:50:47;15.87;;;11.40;;
3831;SDS011;12460;42.662;23.288;2024-01-15T23:05:49;15.13;;;10.50;;
3831;SDS011;12460;42.662;23.288;2024-01-15T23:20:52;15.93;;;10.67;;
3831;SDS011;12460;42.662;23.288;2024-01-15T23:35:54;13.47;;;10.33;;
3831;SDS011;12460;42.662;23.288;2024-01-15T23:50:57;14.53;;;10.13;;
